Bienvenue à Ascain au Pied de la montagne de La Rhune





Visitez nos autres sites:

Radar Aviation Bordeaux

La Station sur le réseau APRS



Vagues-Submersion Valable du: 18-01-2018 16:00 Au: 19-01-2018 16:00 Avertissement pour: Vagues-Submersion Niveau: Jaune info button

Rapports METAR proximité

   
EBBR - Brussels International Airport, Belgium
Distance: O 14 km
Mise à jour: 18-01-2018 20:50
Nuageux  
Nuageux  
   Vent: varie 3.7 km/h
Vent: varie 3.7 km/h
Température: 4°C
Point de rosée: 2°C
Humidité: 87%
Baromètre: 1002 hPa
Nuages: Nuageux
visibilité: Plus 10 km
Détails des nuages: Peu de nuages 2500 ft,
Nuageux 3000 ft
EBBR 181950Z VRB02KT 9999 FEW025CB BKN030 04/02 Q1002 TEMPO 4000 TSRAGS BKN014CB
EBBE - Beauvechain (Bevekom), Belgium
Distance: SSE 17 km
Mise à jour: 18-01-2018 20:48
Pluie, Nuageux  
Pluie, Nuageux  
   Vent: varie 3.7 km/h
Vent: varie 3.7 km/h
Température: 4°C
Point de rosée: 2°C
Humidité: 87%
Baromètre: 1003 hPa
Nuages: Nuageux
visibilité: 3 km
Détails des nuages: Partiellement nuageux 2300 ft,
Nuageux 2900 ft,
Nuageux 3400 ft
EBBE 181948Z AUTO VRB02KT 2600 RA SCT023/// BKN029/// BKN034/// 04/02 Q1003 YLO
EBDT - Schaffen, Belgium
Distance: ENE 29 km
Mise à jour: 18-01-2018 20:25
Pluie faible, Nuageux  
Pluie faible, Nuageux  
   Vent: SO 13 km/h
Vent: SO 13 km/h
Température: 5°C
éolien: 2°C
Point de rosée: 2°C
Humidité: 81%
Baromètre: 1002 hPa
Nuages: Nuageux
visibilité: Plus 10 km
Détails des nuages: Nuageux 2600 ft
EBDT 181925Z AUTO 23007KT 9999 -RA VV026/// 05/02 Q1002 BLU
EBAW - Antwerp/Deurne, Belgium
Distance: NNO 38 km
Mise à jour: 18-01-2018 20:50
Light Thunderstorm, Pluie, Nuageux  
Light Thunderstorm, Pluie, Nuageux  
   Vent: Ouest 11.1 km/h
Vent: Ouest 11.1 km/h
Température: 5°C
éolien: 2°C
Point de rosée: 3°C
Humidité: 87%
Baromètre: 1002 hPa
Nuages: Nuageux
visibilité: 6 km
Détails des nuages: Partiellement nuageux 2000 ft,
Nuageux 4500 ft
EBAW 181950Z 27006KT 6000 -TSRA SCT020CB BKN045 05/03 Q1002 TEMPO 30015G25KT 3500 TSRA
EBCI - Charleroi/Gosselies, Belgium
Distance: SSO 51 km
Mise à jour: 18-01-2018 20:50
Partiellement nuageux  
Partiellement nuageux  
   Vent: SO 20.4 km/h
Vent: SO 20.4 km/h
Température: 5°C
éolien: 1°C
Point de rosée: 3°C
Humidité: 87%
Baromètre: 1003 hPa
Nuages: Partiellement nuageux
visibilité: Plus 10 km
Détails des nuages: Partiellement nuageux 2500 ft
EBCI 181950Z 23011KT 9999 SCT025 05/03 Q1003 TEMPO 4000 SHRA BKN008
EBLG - Bierset/Liege, Belgium
Distance: ESE 60 km
Mise à jour: 18-01-2018 20:50
Light Showers, Pluie, Nuageux  
Light Showers, Pluie, Nuageux  
   Vent: SO 18.5 km/h
Vent: SO 18.5 km/h
Température: 5°C
éolien: 1°C
Point de rosée: 2°C
Humidité: 81%
Baromètre: 1002 hPa
Nuages: Nuageux
visibilité: Plus 10 km
Détails des nuages: Peu de nuages 2200 ft,
Nuageux 2900 ft
EBLG 181950Z 23010KT 9999 -SHRA FEW022 BKN029 05/02 Q1002 NOSIG

Script développé par  Saratoga-weather.org Adapté pour le modèle par  Weerstation Leuven

Vous trouverez notre info météo Également à:

Weather Underground

AWEKAS

Citizen Weather Observer Program (CWOP)

HAMweather, WeatherForYou, PWS Weather